Time;durP1;ratioP1;P1;durP2;ratioP2;P2;SDS_P1;SDS_P2;PMS_P1;PMS_P2;Temp;Humidity;BMP_temperature;BMP_pressure;BME280_temperature;BME280_humidity;BME280_pressure;Samples;Min_cycle;Max_cycle;Signal;HPM_P1;HPM_P2
2023/09/05 00:00:17;;;;;;;2.93;2.53;;;19.00;99.90;;;;;;5024485;28;20588;-71
2023/09/05 00:02:44;;;;;;;3.37;3.07;;;19.00;99.90;;;;;;5027833;28;20224;-71
2023/09/05 00:05:11;;;;;;;7.23;2.80;;;19.10;99.90;;;;;;5028319;28;20465;-72
2023/09/05 00:07:39;;;;;;;4.63;2.57;;;19.20;99.90;;;;;;5028444;28;20505;-71
2023/09/05 00:10:13;;;;;;;2.60;2.40;;;19.20;99.90;;;;;;5026297;28;20470;-72
2023/09/05 00:12:43;;;;;;;5.17;2.87;;;19.20;99.90;;;;;;5028612;28;20502;-71
2023/09/05 00:15:14;;;;;;;5.80;2.70;;;19.30;99.90;;;;;;5012507;28;20991;-73
2023/09/05 00:17:41;;;;;;;3.50;2.97;;;19.30;99.90;;;;;;5009261;28;20491;-72
2023/09/05 00:20:08;;;;;;;4.00;2.80;;;19.30;99.90;;;;;;5053005;28;20469;-72
2023/09/05 00:22:34;;;;;;;3.27;2.97;;;19.00;99.90;;;;;;5026529;28;20974;-73
2023/09/05 00:25:00;;;;;;;2.90;2.50;;;19.00;99.90;;;;;;5008579;28;20551;-72
2023/09/05 00:27:25;;;;;;;4.17;3.17;;;19.10;99.90;;;;;;5041466;28;20470;-73
2023/09/05 00:29:51;;;;;;;3.00;2.70;;;19.10;99.90;;;;;;5026066;28;20246;-72
2023/09/05 00:34:58;;;;;;;2.80;2.60;;;19.20;99.90;;;;;;5750361;23;20885;-75
2023/09/05 00:37:24;;;;;;;2.70;2.00;;;19.10;99.90;;;;;;4969054;28;20585;-74
2023/09/05 00:39:50;;;;;;;3.10;2.60;;;19.10;99.90;;;;;;5005462;28;20240;-75
2023/09/05 00:42:17;;;;;;;4.03;2.80;;;19.00;99.90;;;;;;4994247;28;20233;-74
2023/09/05 00:44:47;;;;;;;2.60;2.40;;;19.00;99.90;;;;;;4987695;28;21906;-74
2023/09/05 00:47:13;;;;;;;2.77;2.57;;;19.00;99.90;;;;;;4905024;28;20494;-73
2023/09/05 00:49:42;;;;;;;2.70;1.90;;;18.80;99.90;;;;;;4874402;28;20481;-74
2023/09/05 00:52:10;;;;;;;2.57;2.37;;;18.70;99.90;;;;;;4864152;29;20572;-72
2023/09/05 00:54:37;;;;;;;5.33;2.70;;;18.80;99.90;;;;;;4658397;29;20620;-74
2023/09/05 00:57:02;;;;;;;2.80;2.60;;;18.90;99.90;;;;;;4594586;30;20498;-72
2023/09/05 00:59:28;;;;;;;3.30;3.00;;;18.80;99.90;;;;;;4576486;30;20499;-74
2023/09/05 01:01:55;;;;;;;3.90;2.80;;;18.70;99.90;;;;;;4599828;30;20233;-74
2023/09/05 01:04:20;;;;;;;3.30;2.47;;;18.70;99.90;;;;;;4582112;30;20308;-73
2023/09/05 01:07:02;;;;;;;3.40;2.83;;;18.50;99.90;;;;;;4599220;30;20500;-74
2023/09/05 01:09:42;;;;;;;2.97;2.60;;;18.60;99.90;;;;;;4583784;30;20492;-73
2023/09/05 01:12:08;;;;;;;3.80;2.43;;;18.70;99.90;;;;;;4600257;30;20534;-73
2023/09/05 01:14:34;;;;;;;3.03;2.73;;;18.70;99.90;;;;;;4598707;30;20496;-74
2023/09/05 01:17:05;;;;;;;3.53;2.80;;;18.50;99.90;;;;;;4586890;30;20503;-72
2023/09/05 01:19:35;;;;;;;4.33;2.70;;;18.60;99.90;;;;;;4570628;30;20233;-74
2023/09/05 01:22:17;;;;;;;3.70;2.90;;;18.60;99.90;;;;;;4599466;30;21601;-72
2023/09/05 01:24:44;;;;;;;2.70;2.33;;;18.60;99.90;;;;;;4573018;30;20591;-72
2023/09/05 01:27:17;;;;;;;4.17;2.77;;;18.60;99.90;;;;;;4573689;30;20516;-74
2023/09/05 01:29:45;;;;;;;10.20;2.40;;;18.50;99.90;;;;;;4587025;30;20499;-72
2023/09/05 01:32:10;;;;;;;2.93;2.50;;;18.50;99.90;;;;;;4598431;30;20496;-74
2023/09/05 01:34:37;;;;;;;3.40;2.70;;;18.50;99.90;;;;;;4585058;30;20496;-74
2023/09/05 01:37:03;;;;;;;3.67;2.30;;;18.30;99.90;;;;;;4597795;30;20356;-72
2023/09/05 01:39:28;;;;;;;2.97;2.67;;;18.30;99.90;;;;;;4597775;30;22068;-72
2023/09/05 01:41:57;;;;;;;3.10;2.80;;;18.30;99.90;;;;;;4585901;30;20440;-73
2023/09/05 01:44:22;;;;;;;3.03;2.80;;;18.30;99.90;;;;;;4582454;30;20306;-73
2023/09/05 01:46:48;;;;;;;4.67;2.50;;;18.30;99.90;;;;;;4598674;30;21045;-74
2023/09/05 01:49:14;;;;;;;3.40;2.37;;;18.40;99.90;;;;;;4570031;30;20256;-74
2023/09/05 01:51:39;;;;;;;3.10;2.50;;;18.40;99.90;;;;;;4586863;30;20252;-72
2023/09/05 01:54:05;;;;;;;2.77;2.53;;;18.30;99.90;;;;;;4637697;30;1061500;-72
2023/09/05 01:56:31;;;;;;;3.50;2.20;;;18.30;99.90;;;;;;4687077;30;20813;-72
2023/09/05 01:58:56;;;;;;;2.87;2.60;;;18.30;99.90;;;;;;4700597;30;20247;-73
2023/09/05 02:01:22;;;;;;;3.00;2.70;;;18.40;99.90;;;;;;4712795;30;20256;-73
2023/09/05 02:03:48;;;;;;;3.03;2.70;;;18.20;99.90;;;;;;4715364;29;20240;-72
2023/09/05 02:06:14;;;;;;;4.37;2.40;;;18.30;99.90;;;;;;4698033;30;20231;-73
2023/09/05 02:08:40;;;;;;;3.20;2.67;;;18.30;99.90;;;;;;4716050;29;20486;-74
2023/09/05 02:11:09;;;;;;;3.13;2.80;;;18.20;99.90;;;;;;4715346;29;21502;-74
2023/09/05 02:13:36;;;;;;;3.73;2.43;;;18.20;99.90;;;;;;4727603;29;20486;-73
2023/09/05 02:16:02;;;;;;;2.77;2.57;;;18.20;99.90;;;;;;4714696;30;20491;-72
2023/09/05 02:18:27;;;;;;;3.33;2.37;;;18.20;99.90;;;;;;4727834;29;20490;-72
2023/09/05 02:21:01;;;;;;;2.90;2.60;;;18.20;99.90;;;;;;4714727;30;20244;-74
2023/09/05 02:23:28;;;;;;;2.40;2.13;;;18.20;99.90;;;;;;4711632;30;20344;-74
2023/09/05 02:26:01;;;;;;;2.60;2.37;;;18.20;99.90;;;;;;4714431;29;20485;-74
2023/09/05 02:28:28;;;;;;;4.70;2.83;;;18.10;99.90;;;;;;4712928;30;21126;-74
2023/09/05 02:30:54;;;;;;;4.23;2.50;;;18.00;99.90;;;;;;4715924;30;20509;-74
2023/09/05 02:33:21;;;;;;;2.30;2.20;;;18.10;99.90;;;;;;4711454;30;20482;-73
2023/09/05 02:35:48;;;;;;;3.23;2.50;;;18.00;99.90;;;;;;4687628;30;20494;-74
2023/09/05 02:38:15;;;;;;;2.43;2.23;;;18.00;99.90;;;;;;4711433;30;20486;-73
2023/09/05 02:40:48;;;;;;;4.03;2.97;;;18.00;99.90;;;;;;4703460;30;20497;-73
2023/09/05 02:43:14;;;;;;;4.83;2.80;;;18.10;99.90;;;;;;4685839;30;20491;-73
2023/09/05 02:45:50;;;;;;;3.50;2.70;;;18.00;99.90;;;;;;4688438;30;20593;-74
2023/09/05 02:48:16;;;;;;;2.70;2.50;;;18.00;99.90;;;;;;4698448;30;20481;-74
2023/09/05 02:50:41;;;;;;;2.43;2.27;;;18.00;99.90;;;;;;4701379;30;21881;-72
2023/09/05 02:53:07;;;;;;;2.60;2.40;;;17.90;99.90;;;;;;4720704;29;20242;-73
2023/09/05 02:55:34;;;;;;;2.73;2.53;;;17.90;99.90;;;;;;4823004;29;20360;-72
2023/09/05 02:58:00;;;;;;;2.27;2.07;;;18.00;99.90;;;;;;4859017;29;20239;-73
2023/09/05 03:00:26;;;;;;;2.40;2.20;;;18.00;99.90;;;;;;4856715;29;20595;-72
2023/09/05 03:02:52;;;;;;;3.00;2.63;;;18.00;99.90;;;;;;4879713;29;21098;-72
2023/09/05 03:05:18;;;;;;;2.77;2.57;;;18.00;99.90;;;;;;4887289;29;20477;-73
2023/09/05 03:07:47;;;;;;;2.83;2.63;;;17.90;99.90;;;;;;4907893;28;20473;-74
2023/09/05 03:10:13;;;;;;;2.93;2.20;;;17.90;99.90;;;;;;4890679;29;20487;-73
2023/09/05 03:12:39;;;;;;;2.77;2.57;;;17.90;99.90;;;;;;4895147;29;20475;-72
2023/09/05 03:15:05;;;;;;;4.07;2.40;;;17.80;99.90;;;;;;4891709;29;20234;-74
2023/09/05 03:17:31;;;;;;;2.40;2.07;;;17.70;99.90;;;;;;4893502;28;20233;-73
2023/09/05 03:19:57;;;;;;;3.43;2.70;;;17.70;99.90;;;;;;4894174;29;20476;-73
2023/09/05 03:22:22;;;;;;;2.83;2.53;;;17.80;99.90;;;;;;4878803;28;20295;-73
2023/09/05 03:24:48;;;;;;;2.87;2.30;;;17.90;99.90;;;;;;4891640;29;20274;-73
2023/09/05 03:27:14;;;;;;;1.90;1.80;;;17.90;99.90;;;;;;4887565;28;20224;-73
2023/09/05 03:29:39;;;;;;;3.27;2.57;;;17.90;99.90;;;;;;4892284;29;20291;-72
2023/09/05 03:32:05;;;;;;;5.83;2.40;;;17.90;99.90;;;;;;4892208;29;20319;-73
2023/09/05 03:34:32;;;;;;;2.60;2.40;;;17.90;99.90;;;;;;4888315;28;20319;-72
2023/09/05 03:36:58;;;;;;;3.90;2.53;;;17.90;99.90;;;;;;4892465;29;20342;-72
2023/09/05 03:39:23;;;;;;;3.07;2.77;;;17.90;99.90;;;;;;4887573;29;20480;-74
2023/09/05 03:41:50;;;;;;;2.50;2.30;;;17.90;99.90;;;;;;4893132;29;20303;-72
2023/09/05 03:44:16;;;;;;;2.80;2.50;;;17.90;99.90;;;;;;4891107;28;20217;-74
2023/09/05 03:46:43;;;;;;;4.10;2.60;;;17.90;99.90;;;;;;4892130;29;20475;-74
2023/09/05 03:49:09;;;;;;;4.83;2.60;;;17.90;99.90;;;;;;4890726;29;20487;-73
2023/09/05 03:51:34;;;;;;;3.20;2.90;;;17.90;99.90;;;;;;4889245;28;20575;-74
2023/09/05 03:54:01;;;;;;;3.73;2.90;;;17.90;99.90;;;;;;4851281;29;20462;-74
2023/09/05 03:56:27;;;;;;;2.53;2.00;;;17.90;99.90;;;;;;4916725;28;20230;-73
2023/09/05 03:58:53;;;;;;;3.50;2.87;;;17.80;99.90;;;;;;4937508;28;20537;-72
2023/09/05 04:01:19;;;;;;;4.43;3.63;;;17.80;99.90;;;;;;4921751;28;20230;-72
2023/09/05 04:03:48;;;;;;;6.43;3.67;;;17.70;99.90;;;;;;4929691;28;20475;-72
2023/09/05 04:06:13;;;;;;;3.13;2.57;;;17.70;99.90;;;;;;4928765;28;20741;-73
2023/09/05 04:08:39;;;;;;;2.27;2.07;;;17.70;99.90;;;;;;4935626;28;20470;-74
2023/09/05 04:11:05;;;;;;;3.90;2.87;;;17.60;99.90;;;;;;4920595;28;20243;-73
2023/09/05 04:13:31;;;;;;;3.77;3.07;;;17.60;99.90;;;;;;4931821;28;20853;-74
2023/09/05 04:16:05;;;;;;;5.43;2.80;;;17.60;99.90;;;;;;4939206;28;20239;-73
2023/09/05 04:18:32;;;;;;;3.17;2.20;;;17.70;99.90;;;;;;4942133;28;20485;-72
2023/09/05 04:20:57;;;;;;;2.70;2.50;;;17.60;99.90;;;;;;4918258;28;20549;-73
2023/09/05 04:23:24;;;;;;;3.90;2.50;;;17.50;99.90;;;;;;4933148;28;20845;-74
2023/09/05 04:25:59;;;;;;;3.20;2.67;;;17.50;99.90;;;;;;4934277;28;20232;-73
2023/09/05 04:28:27;;;;;;;2.63;2.40;;;17.50;99.90;;;;;;4924109;28;20474;-74
2023/09/05 04:30:55;;;;;;;2.60;2.40;;;17.50;99.90;;;;;;4936707;28;20556;-73
2023/09/05 04:33:25;;;;;;;4.93;2.57;;;17.40;99.90;;;;;;4931756;28;20479;-72
2023/09/05 04:35:52;;;;;;;6.20;2.67;;;17.30;99.90;;;;;;4933816;28;20479;-73
2023/09/05 04:38:18;;;;;;;5.63;2.80;;;17.30;99.90;;;;;;4931757;28;20474;-73
2023/09/05 04:40:44;;;;;;;3.10;2.50;;;17.20;99.90;;;;;;4931531;28;21975;-73
2023/09/05 04:43:09;;;;;;;5.67;2.80;;;17.20;99.90;;;;;;4919937;28;20219;-73
2023/09/05 04:45:35;;;;;;;2.50;2.30;;;17.20;99.90;;;;;;4922056;28;20231;-73
2023/09/05 04:48:01;;;;;;;2.50;2.30;;;17.30;99.90;;;;;;4949559;28;20235;-72
2023/09/05 04:50:26;;;;;;;2.70;2.50;;;17.20;99.90;;;;;;4927467;28;20309;-73
2023/09/05 04:52:52;;;;;;;3.70;2.57;;;17.20;99.90;;;;;;4936637;28;20791;-74
2023/09/05 04:55:18;;;;;;;3.40;2.73;;;17.20;99.90;;;;;;4904528;28;20259;-73
2023/09/05 04:57:43;;;;;;;2.83;2.60;;;17.20;99.90;;;;;;4898135;28;20236;-73
2023/09/05 05:00:13;;;;;;;4.37;2.70;;;17.30;99.90;;;;;;4926902;28;20228;-73
2023/09/05 05:02:39;;;;;;;2.87;2.67;;;17.30;99.90;;;;;;4928560;28;20223;-73
2023/09/05 05:05:06;;;;;;;2.60;2.40;;;17.30;99.90;;;;;;4932239;28;22192;-72
2023/09/05 05:07:32;;;;;;;3.60;2.87;;;17.30;99.90;;;;;;4926372;28;21858;-74
2023/09/05 05:09:58;;;;;;;3.07;2.77;;;17.30;99.90;;;;;;4934954;28;20475;-73
2023/09/05 05:12:24;;;;;;;2.80;2.60;;;17.30;99.90;;;;;;4917689;28;20686;-73
2023/09/05 05:14:49;;;;;;;4.43;2.90;;;17.30;99.90;;;;;;4928579;28;20357;-73
2023/09/05 05:17:15;;;;;;;3.83;2.50;;;17.30;99.90;;;;;;4924526;28;21095;-74
2023/09/05 05:19:41;;;;;;;2.80;2.53;;;17.30;99.90;;;;;;4916298;28;20226;-73
2023/09/05 05:22:07;;;;;;;2.70;2.50;;;17.20;99.90;;;;;;4921924;28;20228;-74
2023/09/05 05:24:32;;;;;;;5.30;2.60;;;17.20;99.90;;;;;;4933436;28;20896;-73
2023/09/05 05:26:58;;;;;;;3.37;3.07;;;17.20;99.90;;;;;;4943569;28;20226;-73
2023/09/05 05:29:25;;;;;;;2.93;2.63;;;17.10;99.90;;;;;;4918648;28;20314;-72
2023/09/05 05:31:51;;;;;;;3.60;3.30;;;17.10;99.90;;;;;;4921376;28;20316;-73
2023/09/05 05:34:17;;;;;;;3.00;2.50;;;17.20;99.90;;;;;;4921012;28;20483;-72
2023/09/05 05:36:43;;;;;;;2.53;2.20;;;17.20;99.90;;;;;;4918910;28;20354;-73
2023/09/05 05:39:08;;;;;;;3.60;2.60;;;17.20;99.90;;;;;;4907974;28;20230;-74
2023/09/05 05:41:34;;;;;;;3.50;3.20;;;17.20;99.90;;;;;;4901921;28;20589;-73
2023/09/05 05:44:00;;;;;;;2.93;2.67;;;17.30;99.90;;;;;;4909541;28;20254;-73
2023/09/05 05:46:26;;;;;;;2.70;2.43;;;17.30;99.90;;;;;;4889013;28;20322;-73
2023/09/05 05:48:57;;;;;;;3.20;2.90;;;17.30;99.90;;;;;;4931135;28;20239;-74
2023/09/05 05:51:23;;;;;;;4.17;2.67;;;17.30;99.90;;;;;;4900030;28;20239;-73
2023/09/05 05:53:48;;;;;;;7.20;3.37;;;17.30;99.90;;;;;;4904750;28;20693;-73
2023/09/05 05:56:15;;;;;;;3.20;2.93;;;17.30;99.90;;;;;;4897504;28;20366;-73
2023/09/05 05:58:40;;;;;;;2.43;2.27;;;17.30;99.90;;;;;;4900010;28;20321;-74
2023/09/05 06:01:07;;;;;;;3.73;2.50;;;17.30;99.90;;;;;;4893374;28;20483;-73
2023/09/05 06:03:36;;;;;;;3.40;3.10;;;17.30;99.90;;;;;;4877302;28;20776;-74
2023/09/05 06:06:03;;;;;;;3.73;2.50;;;17.30;99.90;;;;;;4894458;28;20494;-74
2023/09/05 06:08:29;;;;;;;3.70;2.53;;;17.40;99.90;;;;;;4892415;28;20476;-75
2023/09/05 06:10:55;;;;;;;2.80;2.60;;;17.40;99.90;;;;;;4901364;28;21215;-73
2023/09/05 06:13:21;;;;;;;3.03;2.50;;;17.40;99.90;;;;;;4906872;28;20479;-74
2023/09/05 06:15:47;;;;;;;3.07;2.77;;;17.40;99.90;;;;;;4904833;28;20501;-74
2023/09/05 06:18:13;;;;;;;5.00;2.80;;;17.40;99.90;;;;;;4892068;28;20219;-74
2023/09/05 06:20:38;;;;;;;3.30;3.00;;;17.50;99.90;;;;;;4894286;28;20363;-74
2023/09/05 06:23:05;;;;;;;2.70;2.47;;;17.50;99.90;;;;;;4891996;28;20231;-74
2023/09/05 06:25:30;;;;;;;3.97;3.57;;;17.60;99.90;;;;;;4905490;28;20223;-73
2023/09/05 06:27:56;;;;;;;2.60;2.40;;;17.60;99.90;;;;;;4893992;28;21221;-72
2023/09/05 06:30:25;;;;;;;3.33;2.90;;;17.70;99.90;;;;;;4893485;28;20587;-73
2023/09/05 06:32:50;;;;;;;3.10;2.80;;;17.70;99.90;;;;;;4905956;28;20246;-74
2023/09/05 06:35:16;;;;;;;3.27;2.90;;;17.80;99.90;;;;;;4888736;28;20475;-73
2023/09/05 06:37:42;;;;;;;4.60;2.40;;;17.80;99.90;;;;;;4917515;28;20365;-73
2023/09/05 06:40:14;;;;;;;3.43;2.60;;;17.90;99.90;;;;;;4891512;28;20353;-73
2023/09/05 06:42:41;;;;;;;4.33;2.77;;;17.90;99.90;;;;;;4909176;28;20564;-73
2023/09/05 06:45:07;;;;;;;4.23;2.90;;;18.00;99.90;;;;;;4896304;28;21080;-73
2023/09/05 06:47:33;;;;;;;2.73;2.50;;;18.10;99.90;;;;;;4899096;28;20517;-73
2023/09/05 06:49:59;;;;;;;3.23;2.37;;;18.10;99.90;;;;;;4886664;28;21078;-73
2023/09/05 06:52:25;;;;;;;3.33;3.03;;;18.20;99.90;;;;;;4899664;28;20278;-74
2023/09/05 06:54:52;;;;;;;2.50;2.30;;;18.20;99.90;;;;;;4908443;28;20613;-73
2023/09/05 06:57:18;;;;;;;2.83;2.60;;;18.30;99.90;;;;;;4891361;28;20771;-74
2023/09/05 06:59:44;;;;;;;5.73;2.80;;;18.40;99.90;;;;;;4892997;28;20478;-73
2023/09/05 07:02:09;;;;;;;3.60;2.87;;;18.50;99.90;;;;;;4891775;28;20474;-73
2023/09/05 07:04:36;;;;;;;3.00;2.67;;;18.60;99.90;;;;;;4888549;28;20478;-74
2023/09/05 07:07:03;;;;;;;3.13;2.83;;;18.60;99.90;;;;;;4892358;28;20219;-72
2023/09/05 07:09:29;;;;;;;2.70;2.50;;;18.70;99.90;;;;;;4890724;28;21525;-74
2023/09/05 07:11:55;;;;;;;2.90;2.70;;;18.70;99.90;;;;;;4886940;28;20594;-73
2023/09/05 07:14:21;;;;;;;3.50;2.40;;;18.80;99.90;;;;;;4882271;28;21023;-74
2023/09/05 07:16:47;;;;;;;5.80;2.90;;;18.80;99.90;;;;;;4893757;28;21075;-73
2023/09/05 07:19:13;;;;;;;3.03;2.67;;;18.90;99.90;;;;;;4885911;28;20297;-73
2023/09/05 07:21:40;;;;;;;3.10;2.80;;;18.90;99.90;;;;;;4907668;28;20238;-73
2023/09/05 07:24:15;;;;;;;4.23;3.10;;;19.20;99.90;;;;;;4876333;28;20224;-74
2023/09/05 07:26:45;;;;;;;2.97;2.67;;;19.30;99.90;;;;;;4892127;28;20501;-72
2023/09/05 07:29:12;;;;;;;2.80;2.60;;;19.30;99.90;;;;;;4890564;28;20479;-72
2023/09/05 07:31:41;;;;;;;2.77;2.50;;;19.40;99.90;;;;;;4889064;28;20483;-73
2023/09/05 07:34:07;;;;;;;3.30;2.73;;;19.50;99.90;;;;;;4884544;28;20609;-73
2023/09/05 07:36:34;;;;;;;3.60;2.90;;;19.50;99.90;;;;;;4904680;28;21222;-73
2023/09/05 07:39:02;;;;;;;4.77;2.60;;;19.70;99.90;;;;;;4891380;28;21403;-73
2023/09/05 07:41:32;;;;;;;3.07;2.80;;;19.80;99.90;;;;;;4886703;28;20486;-73
2023/09/05 07:43:58;;;;;;;3.90;2.83;;;20.00;99.90;;;;;;4892858;28;21709;-73
2023/09/05 07:46:23;;;;;;;3.10;2.30;;;20.10;99.90;;;;;;4885554;28;21095;-73
2023/09/05 07:48:49;;;;;;;3.10;2.80;;;20.20;99.90;;;;;;4890261;28;20239;-73
2023/09/05 07:51:15;;;;;;;2.47;2.30;;;20.40;99.90;;;;;;4888826;28;20242;-73
2023/09/05 07:54:03;;;;;;;4.47;3.10;;;20.60;99.90;;;;;;4862753;28;20231;-73
2023/09/05 07:56:29;;;;;;;3.20;2.90;;;20.40;99.90;;;;;;4901664;28;20232;-72
2023/09/05 07:58:56;;;;;;;3.47;2.83;;;20.40;99.90;;;;;;4912550;28;20641;-73
2023/09/05 08:01:21;;;;;;;3.23;2.70;;;20.70;99.90;;;;;;4917080;28;20486;-73
2023/09/05 08:03:47;;;;;;;2.80;2.60;;;20.80;99.90;;;;;;4913563;28;21618;-73
2023/09/05 08:06:13;;;;;;;3.70;3.40;;;20.70;99.90;;;;;;4901006;28;20326;-73
2023/09/05 08:08:39;;;;;;;4.73;2.77;;;20.70;99.90;;;;;;4946951;28;20345;-73
2023/09/05 08:11:05;;;;;;;5.37;3.10;;;21.00;99.90;;;;;;4937778;28;20477;-73
2023/09/05 08:13:30;;;;;;;2.90;2.60;;;21.00;99.90;;;;;;4916056;28;20230;-74
2023/09/05 08:15:56;;;;;;;3.70;2.67;;;21.10;99.90;;;;;;4902856;28;20238;-73
2023/09/05 08:18:22;;;;;;;4.10;3.10;;;21.30;99.90;;;;;;4920695;28;21400;-73
2023/09/05 08:20:47;;;;;;;4.20;2.70;;;21.30;99.90;;;;;;4913160;28;20344;-73
2023/09/05 08:23:13;;;;;;;2.70;2.50;;;21.30;99.90;;;;;;4894789;28;20262;-74
2023/09/05 08:25:39;;;;;;;3.03;2.40;;;21.50;99.90;;;;;;4881138;28;20805;-74
2023/09/05 08:28:05;;;;;;;3.80;3.50;;;21.70;99.90;;;;;;4904550;28;20828;-74
2023/09/05 08:30:31;;;;;;;3.00;2.70;;;21.70;99.90;;;;;;4908015;28;20226;-73
2023/09/05 08:33:01;;;;;;;3.57;3.27;;;21.80;99.90;;;;;;4886100;28;20570;-75
2023/09/05 08:35:29;;;;;;;2.33;2.13;;;22.10;99.90;;;;;;4890698;28;20973;-74
2023/09/05 08:37:57;;;;;;;3.27;2.97;;;22.30;99.90;;;;;;4927210;28;21208;-74
2023/09/05 08:40:23;;;;;;;2.80;2.60;;;22.40;99.90;;;;;;4906632;28;20559;-74
2023/09/05 08:42:53;;;;;;;3.37;2.80;;;22.40;99.90;;;;;;4899120;28;20470;-73
2023/09/05 08:45:22;;;;;;;3.03;2.80;;;22.60;99.90;;;;;;4890324;28;20891;-73
2023/09/05 08:47:49;;;;;;;3.10;2.90;;;22.70;99.90;;;;;;4892175;28;22128;-73
2023/09/05 08:50:15;;;;;;;4.00;3.10;;;22.60;99.90;;;;;;4898998;28;20467;-73
2023/09/05 08:52:43;;;;;;;3.17;2.87;;;22.60;99.90;;;;;;4892593;28;21679;-74
2023/09/05 08:55:10;;;;;;;2.53;2.33;;;22.80;99.90;;;;;;4893956;28;21165;-74
2023/09/05 08:57:40;;;;;;;3.43;3.10;;;23.00;99.90;;;;;;4902082;28;21407;-73
2023/09/05 09:00:06;;;;;;;2.70;2.50;;;23.10;99.90;;;;;;4909611;28;20932;-73
2023/09/05 09:02:35;;;;;;;4.10;2.93;;;23.20;99.90;;;;;;4891116;28;20466;-74
2023/09/05 09:05:01;;;;;;;3.07;2.77;;;23.40;99.90;;;;;;4896037;28;20473;-73
2023/09/05 09:07:27;;;;;;;5.03;2.73;;;23.50;99.90;;;;;;4890197;28;20489;-74
2023/09/05 09:09:54;;;;;;;3.07;2.33;;;23.50;99.90;;;;;;4896944;28;20536;-74
2023/09/05 09:12:30;;;;;;;2.90;2.60;;;23.70;99.90;;;;;;4909129;28;20578;-74
2023/09/05 09:15:09;;;;;;;2.70;2.50;;;23.80;99.90;;;;;;4891591;28;20544;-73
2023/09/05 09:17:35;;;;;;;8.90;2.60;;;24.10;99.90;;;;;;4892375;28;20498;-73
2023/09/05 09:20:03;;;;;;;4.97;2.43;;;24.40;99.90;;;;;;4878795;28;20797;-75
2023/09/05 09:22:29;;;;;;;4.83;2.63;;;24.40;99.90;;;;;;4895101;28;20478;-75
2023/09/05 09:24:55;;;;;;;3.10;2.57;;;24.60;99.90;;;;;;4892133;28;21079;-73
2023/09/05 09:27:23;;;;;;;3.40;3.10;;;24.60;99.90;;;;;;4893885;28;20314;-74
2023/09/05 09:29:55;;;;;;;2.93;2.73;;;24.60;99.90;;;;;;4926940;28;20335;-74
2023/09/05 09:32:22;;;;;;;4.20;2.70;;;24.50;99.90;;;;;;4919847;28;20520;-74
2023/09/05 09:34:50;;;;;;;2.30;2.20;;;24.50;99.90;;;;;;4900740;28;21216;-74
2023/09/05 09:37:25;;;;;;;2.57;2.37;;;24.50;99.90;;;;;;4898789;28;20509;-74
2023/09/05 09:39:59;;;;;;;2.97;2.70;;;24.70;99.90;;;;;;4908267;28;20481;-74
2023/09/05 09:42:26;;;;;;;2.67;2.47;;;24.90;99.90;;;;;;4914206;28;20478;-74
2023/09/05 09:44:55;;;;;;;3.13;2.67;;;25.10;99.90;;;;;;4921420;28;20485;-75
2023/09/05 09:47:21;;;;;;;2.93;2.40;;;24.90;99.90;;;;;;4903415;28;20596;-75
2023/09/05 09:49:48;;;;;;;2.60;2.40;;;24.90;99.90;;;;;;4914320;28;20490;-74
2023/09/05 09:52:20;;;;;;;2.70;2.50;;;24.80;99.90;;;;;;4897422;28;20492;-74
2023/09/05 09:54:47;;;;;;;2.90;2.67;;;24.60;99.90;;;;;;4886165;28;20482;-75
2023/09/05 09:57:16;;;;;;;3.00;2.80;;;24.60;99.90;;;;;;4902030;28;20845;-74
2023/09/05 09:59:50;;;;;;;3.40;2.27;;;24.80;99.90;;;;;;4916383;28;20470;-74
2023/09/05 10:02:16;;;;;;;2.63;2.43;;;25.10;99.90;;;;;;4898163;28;20480;-74
2023/09/05 10:04:43;;;;;;;2.70;2.50;;;25.30;99.90;;;;;;4912649;28;20489;-74
2023/09/05 10:07:14;;;;;;;2.53;2.23;;;25.50;99.90;;;;;;4911297;28;20726;-74
2023/09/05 10:09:44;;;;;;;3.10;2.80;;;25.40;99.90;;;;;;4933938;28;20495;-74
2023/09/05 10:12:11;;;;;;;3.63;1.93;;;25.50;99.90;;;;;;4917035;28;20508;-74
2023/09/05 10:14:38;;;;;;;2.80;2.60;;;25.60;99.90;;;;;;4933969;28;20481;-75
2023/09/05 10:17:04;;;;;;;2.70;2.50;;;25.60;99.90;;;;;;4920328;28;20856;-74
2023/09/05 10:19:31;;;;;;;3.17;2.97;;;26.00;99.90;;;;;;4918075;28;20477;-74
2023/09/05 10:21:58;;;;;;;2.80;2.60;;;26.00;99.90;;;;;;4906863;28;20222;-73
2023/09/05 10:24:25;;;;;;;2.50;2.30;;;26.10;99.90;;;;;;4919316;28;20465;-74
2023/09/05 10:26:52;;;;;;;2.70;2.50;;;26.00;99.90;;;;;;4917639;28;21140;-72
2023/09/05 10:29:43;;;;;;;3.60;3.10;;;25.80;99.90;;;;;;4933746;28;21084;-74
2023/09/05 10:32:18;;;;;;;3.10;2.80;;;25.70;99.90;;;;;;4915196;28;20488;-74
2023/09/05 10:34:46;;;;;;;2.87;2.67;;;25.80;99.90;;;;;;4928152;28;21069;-75
2023/09/05 10:37:18;;;;;;;4.00;3.40;;;25.90;99.90;;;;;;4898592;28;20482;-73
2023/09/05 10:39:48;;;;;;;3.00;2.80;;;25.90;99.90;;;;;;4899758;28;20474;-74
2023/09/05 10:42:15;;;;;;;2.63;2.43;;;26.00;99.90;;;;;;4895749;28;20690;-74
2023/09/05 10:44:41;;;;;;;3.13;2.93;;;26.20;99.90;;;;;;4897630;28;20475;-75
2023/09/05 10:47:26;;;;;;;2.87;2.50;;;26.20;99.90;;;;;;4899763;28;20850;-74
2023/09/05 10:50:11;;;;;;;2.70;2.50;;;26.30;99.90;;;;;;4926564;28;20570;-75
2023/09/05 10:52:37;;;;;;;2.60;2.40;;;26.30;99.90;;;;;;4912586;28;20462;-75
2023/09/05 10:55:25;;;;;;;2.70;2.50;;;26.20;99.90;;;;;;4898785;28;20540;-75
2023/09/05 10:57:51;;;;;;;2.83;2.50;;;26.50;99.90;;;;;;4898757;28;20245;-74
2023/09/05 11:00:20;;;;;;;2.53;2.33;;;26.50;99.90;;;;;;4895315;28;20482;-75
2023/09/05 11:02:48;;;;;;;2.87;2.67;;;26.50;99.90;;;;;;4918391;28;20480;-75
2023/09/05 11:05:18;;;;;;;3.20;2.90;;;26.50;99.90;;;;;;4908879;28;21260;-73
2023/09/05 11:07:50;;;;;;;2.80;2.60;;;26.50;99.90;;;;;;4895108;28;20477;-75
2023/09/05 11:10:34;;;;;;;2.87;2.67;;;26.50;99.90;;;;;;4898913;28;20565;-75
2023/09/05 11:13:12;;;;;;;2.90;2.67;;;26.50;99.90;;;;;;4906343;28;21254;-74
2023/09/05 11:15:43;;;;;;;2.67;2.47;;;26.70;99.90;;;;;;4893785;28;20899;-74
2023/09/05 11:18:11;;;;;;;2.83;2.63;;;26.80;99.90;;;;;;4888603;28;20473;-74
2023/09/05 11:20:47;;;;;;;3.37;2.50;;;26.80;99.90;;;;;;4896490;28;21283;-76
2023/09/05 11:23:28;;;;;;;3.23;2.67;;;26.60;99.90;;;;;;4896480;28;20521;-74
2023/09/05 11:25:55;;;;;;;2.60;2.37;;;26.70;99.90;;;;;;4899049;28;21196;-74
2023/09/05 11:28:24;;;;;;;2.57;2.37;;;26.80;99.90;;;;;;4890915;28;21098;-74
2023/09/05 11:30:57;;;;;;;3.07;2.87;;;26.80;99.90;;;;;;4900036;28;20482;-73
2023/09/05 11:33:24;;;;;;;3.17;2.87;;;26.90;99.90;;;;;;4906291;28;21088;-73
2023/09/05 11:35:51;;;;;;;3.00;2.80;;;26.40;99.90;;;;;;4912974;28;20563;-74
2023/09/05 11:38:18;;;;;;;3.83;2.97;;;26.80;99.90;;;;;;4898550;28;20481;-73
2023/09/05 11:40:51;;;;;;;2.67;2.47;;;27.00;99.90;;;;;;4891292;28;20590;-74
2023/09/05 11:43:16;;;;;;;2.60;2.40;;;27.10;99.90;;;;;;4880091;28;20543;-75
2023/09/05 11:45:45;;;;;;;3.03;2.83;;;27.30;99.90;;;;;;4913276;28;20482;-74
2023/09/05 11:48:12;;;;;;;2.33;2.13;;;27.00;99.90;;;;;;4898797;28;21047;-75
2023/09/05 11:50:43;;;;;;;2.70;2.50;;;27.00;99.90;;;;;;4907575;28;20504;-74
2023/09/05 11:53:11;;;;;;;2.77;2.57;;;27.10;99.90;;;;;;4907808;28;20844;-74
2023/09/05 11:55:38;;;;;;;2.57;2.37;;;26.90;99.90;;;;;;4896993;28;20476;-73
2023/09/05 11:58:07;;;;;;;3.10;2.77;;;26.90;99.90;;;;;;4911726;28;20477;-73
2023/09/05 12:00:41;;;;;;;2.75;2.55;;;27.00;99.90;;;;;;4908488;28;20461;-73
2023/09/05 12:03:08;;;;;;;2.80;2.60;;;27.70;99.90;;;;;;4917752;28;20923;-74
2023/09/05 12:05:36;;;;;;;3.10;2.70;;;28.00;99.90;;;;;;4915606;28;20335;-74
2023/09/05 12:08:05;;;;;;;3.92;2.45;;;28.30;99.80;;;;;;4918061;28;20295;-74
2023/09/05 12:10:40;;;;;;;4.82;2.75;;;28.20;99.70;;;;;;4917192;28;20236;-75
2023/09/05 12:13:06;;;;;;;2.60;2.40;;;28.20;99.90;;;;;;4911697;28;20818;-74
2023/09/05 12:15:34;;;;;;;2.72;2.53;;;27.90;99.90;;;;;;4891840;28;20334;-74
2023/09/05 12:18:03;;;;;;;2.75;2.50;;;27.50;99.90;;;;;;4897083;28;20313;-74
2023/09/05 12:20:29;;;;;;;3.53;3.22;;;27.60;99.90;;;;;;4894250;28;20328;-74
2023/09/05 12:22:54;;;;;;;3.97;3.10;;;27.70;99.90;;;;;;4918372;28;20223;-75
2023/09/05 12:25:24;;;;;;;2.80;2.60;;;27.80;99.90;;;;;;4915139;28;20901;-74
2023/09/05 12:27:55;;;;;;;4.88;2.53;;;28.00;99.70;;;;;;4929412;28;20229;-75
2023/09/05 12:30:29;;;;;;;2.88;2.55;;;28.20;99.40;;;;;;4920336;28;20902;-74
2023/09/05 12:32:57;;;;;;;2.97;2.78;;;27.90;99.50;;;;;;4919835;28;20573;-75
2023/09/05 12:35:25;;;;;;;2.42;2.33;;;27.60;99.50;;;;;;4918326;28;20324;-74
2023/09/05 12:37:51;;;;;;;3.40;3.10;;;27.70;99.90;;;;;;4917090;28;20226;-75
2023/09/05 12:40:17;;;;;;;3.00;2.55;;;27.50;99.60;;;;;;4915124;28;20315;-72
2023/09/05 12:42:46;;;;;;;4.10;2.67;;;27.10;99.90;;;;;;4903214;28;20219;-75
2023/09/05 12:45:13;;;;;;;2.90;2.70;;;27.30;99.90;;;;;;4929456;28;20250;-74
2023/09/05 12:47:40;;;;;;;2.80;2.60;;;27.20;99.90;;;;;;4932956;28;20715;-74
2023/09/05 12:50:12;;;;;;;3.13;2.83;;;27.40;99.90;;;;;;4890623;28;20599;-75